SCC: Birmingham practice three times

Pos Num Class Team Time Gap To 1st Speed --- --- ----- ------------------------------ ---------- ------- ------- ------- 1. 05 GS Multimatic Motorsports 1:37.503 84.920 2. 96...

Pos Num Class Team                                 Time     Gap  To 1st   Speed
--- --- ----- ------------------------------ ---------- ------- ------- -------
 1.  05 GS    Multimatic Motorsports           1:37.503                  84.920
 2.  96 GS    Turner Motorsport                1:37.557   0.054   0.054  84.873
 3.  99 GS    Anchor Racing                    1:37.656   0.099   0.153  84.787
 4.  81 GS    Synergy Racing                   1:37.783   0.127   0.280  84.677
 5.  90 GS    Automatic Racing                 1:37.933   0.150   0.430  84.548
 6.  13 GS    Unitech Racing                   1:38.000   0.067   0.497  84.490
 7.  07 GS    Powell Motorsport                1:38.064   0.064   0.561  84.435
 8.  92 GS    Anchor Racing                    1:38.119   0.055   0.616  84.387
 9.  40 GS    Team Sahlen                      1:38.138   0.019   0.635  84.371
10.  10 GS    Champion Motorsports             1:38.172   0.034   0.669  84.342
11.  35 GS    Schuitemaker Motorsports         1:38.256   0.084   0.753  84.270
12.   4 GS    Blackforest Motorsports          1:38.293   0.037   0.790  84.238
13.  55 GS    Multimatic Motorsports           1:38.326   0.033   0.823  84.210
14.  09 GS    Automatic Racing                 1:38.547   0.221   1.044  84.021
15.  38 GS    BGB Motorsports                  1:38.778   0.231   1.275  83.824
16.   7 GS    Power Racing Team                1:38.814   0.036   1.311  83.794
17.  11 GS    Powell Motorsport                1:38.878   0.064   1.375  83.740
18.  88 GS    Knobel Racing                    1:39.021   0.143   1.518  83.619
19.  17 GS    Doncaster Racing                 1:39.023   0.002   1.520  83.617
20.  47 GS    TF Racing                        1:39.317   0.294   1.814  83.369
21.  16 GS    Zoom Motorsports                 1:39.327   0.010   1.824  83.361
22.  89 GS    LNS Motorsports                  1:39.333   0.006   1.830  83.356
23.  21 GS    Bodymotion Racing                1:39.608   0.275   2.105  83.126
24.  91 GS    Fiorano Racing                   1:39.608   0.000   2.105  83.126
25.   6 GS    Zoom Motorsports                 1:39.645   0.037   2.142  83.095
26.  60 GS    Finlay Motorsports               1:39.855   0.210   2.352  82.920
27.   5 GS    Blackforest Motorsports          1:40.048   0.193   2.545  82.760
28.  84 GS    DWW/GorillaRacing.com            1:40.141   0.093   2.638  82.683
29.  93 GS    Anchor Racing                    1:40.265   0.124   2.762  82.581
30.  28 GS    Race Prep Motorsports            1:40.290   0.025   2.787  82.561
31.  45 GS    Autometrics Motorsports          1:40.426   0.136   2.923  82.449
32.  69 GS    Krohn Racing/TRG                 1:40.543   0.117   3.040  82.353
33.  18 GS    Race Prep Motorsports            1:41.260   0.717   3.757  81.770
34.  58 GS    Rehagen Racing                   1:41.285   0.025   3.782  81.750
35.  63 GS    Team RPM                         1:41.332   0.047   3.829  81.712
36.  95 ST    Turner Motorsports               1:41.688   0.356   4.185  81.426
37.  27 ST    Bill Fenton Motorsports          1:42.014   0.326   4.511  81.165
38.  64 ST    Matt Connolly Motorsports        1:42.056   0.042   4.553  81.132
39.  44 GS    Team Sahlen                      1:42.277   0.221   4.774  80.957
40.  70 ST    SpeedSource                      1:42.324   0.047   4.821  80.919
41.  12 ST    TC Kline Racing                  1:42.662   0.338   5.159  80.653
42.  43 GS    Team Sahlen                      1:42.856   0.194   5.353  80.501
43.  39 ST    Matt Connolly Motorsports        1:42.940   0.084   5.437  80.435
44.  00 ST    Georgian Bay Motorsports         1:43.193   0.253   5.690  80.238
45.  71 ST    TC Kline Racing                  1:43.198   0.005   5.695  80.234
46.  68 ST    SpeedSource                      1:43.209   0.011   5.706  80.226
47.  01 ST    Georgian Bay Motorsports         1:43.352   0.143   5.849  80.115
48.  29 ST    Bill Fenton Motorsports          1:43.536   0.184   6.033  79.972
49.  06 ST    Compass360/Racing                1:43.696   0.160   6.193  79.849
50.  97 ST    Turner Motorsports               1:43.716   0.020   6.213  79.833
51.  66 ST    SpeedSource                      1:43.819   0.103   6.316  79.754
52.  98 ST    Stewart Motorsports              1:43.832   0.013   6.329  79.744
53.  32 ST    Franklin American                1:43.998   0.166   6.495  79.617
54.  46 ST    Franklin American Mortgage       1:44.374   0.376   6.871  79.330
55.  72 ST    Anchor Racing                    1:44.572   0.198   7.069  79.180
56.  50 ST    Southpaw Racing                  1:44.799   0.227   7.296  79.008
57.  20 ST    Nuzzo Motorsports                1:45.763   0.964   8.260  78.288
58.  94 ST    Radial Motorsports               1:46.205   0.442   8.702  77.962
59.  67 ST    SpeedSource                      1:46.491   0.286   8.988  77.753
60.  25 ST    HBAR Motorsports                 1:48.967   2.476  11.464  75.986
61.  36 ST    Compass360/Racing                1:53.756   4.789  16.253  72.787
62.  73 GS    RTG Motorsports                  1:55.903   2.147  18.400  71.439
63.  52 GS    Rehagen Racing                    No Time

Be part of something big

Write a comment
Show comments
About this article
Series Grand-Am
Drivers Matt Connolly , Bill Fenton
Teams Krohn Racing , Autometrics Motorsports , Rehagen Racing , Turner Motorsport , Team Sahlen , Multimatic Motorsports , Automatic Racing , Bodymotion Racing , SpeedSource